createdAt,value
2023-03-16T00:01:41.029Z,95.88
2023-03-16T00:04:09.029Z,96.84
2023-03-16T00:06:38.361Z,96.15
2023-03-16T00:09:06.360Z,95.23
2023-03-16T00:11:34.315Z,94.21
2023-03-16T00:14:04.186Z,92.61
2023-03-16T00:16:32.195Z,92.34
2023-03-16T00:19:00.644Z,92.30
2023-03-16T00:21:30.619Z,92.90
2023-03-16T00:24:00.062Z,92.74
2023-03-16T00:26:28.185Z,92.86
2023-03-16T00:28:56.140Z,93.01
2023-03-16T00:31:25.231Z,93.10
2023-03-16T00:33:53.474Z,93.04
2023-03-16T00:36:22.879Z,93.66
2023-03-16T00:38:51.340Z,93.21
2023-03-16T00:41:22.968Z,94.44
2023-03-16T00:43:51.838Z,93.80
2023-03-16T00:46:19.981Z,94.58
2023-03-16T00:48:48.975Z,95.50
2023-03-16T00:51:19.176Z,95.36
2023-03-16T00:53:48.398Z,95.18
2023-03-16T00:56:17.805Z,94.91
2023-03-16T00:58:47.656Z,95.01
2023-03-16T01:01:18.278Z,95.14
2023-03-16T01:03:47.632Z,94.43
2023-03-16T01:06:20.924Z,94.90
2023-03-16T01:08:48.874Z,95.82
2023-03-16T01:11:18.585Z,96.40
2023-03-16T01:13:49.522Z,97.16
2023-03-16T01:16:19.041Z,97.78
2023-03-16T01:18:47.812Z,97.17
2023-03-16T01:21:15.977Z,96.40
2023-03-16T01:23:44.521Z,95.47
2023-03-16T01:26:13.080Z,96.44
2023-03-16T01:28:40.959Z,96.85
2023-03-16T01:31:12.697Z,96.47
2023-03-16T01:33:41.207Z,96.55
2023-03-16T01:36:12.984Z,96.07
2023-03-16T01:38:41.259Z,96.68
2023-03-16T01:41:09.956Z,97.07
2023-03-16T01:43:40.459Z,96.80
2023-03-16T01:46:19.214Z,97.04
2023-03-16T01:48:56.176Z,98.39
2023-03-16T01:51:29.335Z,97.35
2023-03-16T01:54:00.358Z,97.61
2023-03-16T01:56:35.075Z,97.47
2023-03-16T01:59:07.054Z,98.42
2023-03-16T02:01:36.959Z,97.36
2023-03-16T02:04:15.106Z,97.90
2023-03-16T02:06:44.637Z,98.83
2023-03-16T02:09:13.295Z,98.14
2023-03-16T02:11:41.655Z,97.50
2023-03-16T02:14:12.092Z,96.82
2023-03-16T02:16:42.528Z,98.18
2023-03-16T02:19:15.182Z,98.11
2023-03-16T02:21:54.605Z,97.76
2023-03-16T02:24:22.581Z,97.79
2023-03-16T02:26:56.160Z,98.05
2023-03-16T02:29:54.189Z,96.98
2023-03-16T02:32:24.263Z,96.97
2023-03-16T02:34:52.187Z,98.10
2023-03-16T02:37:20.266Z,97.40
2023-03-16T02:39:48.178Z,98.93
2023-03-16T02:42:19.549Z,99.51
2023-03-16T02:44:52.117Z,100.00
2023-03-16T02:47:28.385Z,100.00
2023-03-16T02:49:56.256Z,100.00
2023-03-16T02:52:24.149Z,100.00
2023-03-16T02:54:52.010Z,100.00
2023-03-16T02:57:19.912Z,100.00
2023-03-16T02:59:47.875Z,100.00
2023-03-16T03:02:17.187Z,100.00
2023-03-16T03:04:46.337Z,100.00
2023-03-16T03:07:14.628Z,100.00
2023-03-16T03:09:43.287Z,100.00
2023-03-16T03:12:11.804Z,100.00
2023-03-16T03:14:40.627Z,100.00
2023-03-16T03:17:10.100Z,100.00
2023-03-16T03:19:39.372Z,100.00
2023-03-16T03:22:07.442Z,100.00
2023-03-16T03:24:36.307Z,100.00
2023-03-16T03:27:05.863Z,100.00
2023-03-16T03:29:35.397Z,100.00
2023-03-16T03:32:03.501Z,100.00
2023-03-16T03:34:32.133Z,100.00
2023-03-16T03:37:01.498Z,100.00
2023-03-16T03:39:29.450Z,100.00
2023-03-16T03:41:57.370Z,100.00
2023-03-16T03:44:27.048Z,100.00
2023-03-16T03:46:55.042Z,100.00
2023-03-16T03:49:23.000Z,100.00
2023-03-16T03:51:51.409Z,100.00
2023-03-16T03:54:20.750Z,100.00
2023-03-16T03:56:48.643Z,100.00
2023-03-16T03:59:16.520Z,100.00
2023-03-16T04:01:44.944Z,100.00
2023-03-16T04:04:12.852Z,100.00
2023-03-16T04:06:41.753Z,100.00
2023-03-16T04:09:10.032Z,100.00
2023-03-16T04:11:39.549Z,100.00
2023-03-16T04:14:07.791Z,100.00
2023-03-16T04:16:35.937Z,100.00
2023-03-16T04:19:04.426Z,100.00
2023-03-16T04:21:32.359Z,100.00
2023-03-16T04:24:01.516Z,100.00
2023-03-16T04:26:29.582Z,100.00
2023-03-16T04:28:59.076Z,100.00
2023-03-16T04:31:27.305Z,100.00
2023-03-16T04:33:55.333Z,100.00
2023-03-16T04:36:24.655Z,100.00
2023-03-16T04:38:52.831Z,100.00
2023-03-16T04:41:21.091Z,100.00
2023-03-16T04:43:48.975Z,100.00
2023-03-16T04:46:18.300Z,100.00
2023-03-16T04:48:46.292Z,100.00
2023-03-16T04:51:14.240Z,100.00
2023-03-16T04:53:42.203Z,100.00
2023-03-16T04:56:10.113Z,100.00
2023-03-16T04:58:37.951Z,100.00
2023-03-16T05:01:06.106Z,100.00
2023-03-16T05:03:35.926Z,100.00
2023-03-16T05:06:03.882Z,100.00
2023-03-16T05:08:32.110Z,100.00
2023-03-16T05:11:00.419Z,100.00
2023-03-16T05:13:28.380Z,100.00
2023-03-16T05:15:56.362Z,100.00
2023-03-16T05:18:24.884Z,100.00
2023-03-16T05:20:56.538Z,100.00
2023-03-16T05:23:25.018Z,100.00
2023-03-16T05:25:52.896Z,100.00
2023-03-16T05:28:20.769Z,100.00
2023-03-16T05:30:48.686Z,100.00
2023-03-16T05:33:16.607Z,100.00
2023-03-16T05:35:44.525Z,100.00
2023-03-16T05:38:15.894Z,100.00
2023-03-16T05:40:43.892Z,100.00
2023-03-16T05:43:11.758Z,100.00
2023-03-16T05:45:39.650Z,100.00
2023-03-16T05:48:07.721Z,100.00
2023-03-16T05:50:35.662Z,100.00
2023-03-16T05:53:04.345Z,100.00
2023-03-16T05:55:33.622Z,100.00
2023-03-16T05:58:04.390Z,100.00
2023-03-16T06:00:33.637Z,100.00
2023-03-16T06:03:01.695Z,100.00
2023-03-16T06:05:30.486Z,100.00
2023-03-16T06:07:58.352Z,100.00
2023-03-16T06:10:27.028Z,100.00
2023-03-16T06:12:57.113Z,100.00
2023-03-16T06:15:26.632Z,100.00
2023-03-16T06:17:54.499Z,100.00
2023-03-16T06:20:22.707Z,100.00
2023-03-16T06:22:50.560Z,100.00
2023-03-16T06:25:18.815Z,100.00
2023-03-16T06:27:46.814Z,100.00
2023-03-16T06:30:17.303Z,100.00
2023-03-16T06:32:46.387Z,100.00
2023-03-16T06:35:14.997Z,100.00
2023-03-16T06:37:44.023Z,100.00
2023-03-16T06:40:13.468Z,100.00
2023-03-16T06:42:41.403Z,100.00
2023-03-16T06:45:11.196Z,100.00
2023-03-16T06:47:40.410Z,100.00
2023-03-16T06:50:09.158Z,100.00
2023-03-16T06:52:37.133Z,100.00
2023-03-16T06:55:05.612Z,100.00
2023-03-16T06:57:33.477Z,100.00
2023-03-16T07:00:03.535Z,100.00
2023-03-16T07:02:32.307Z,100.00
2023-03-16T07:05:01.581Z,100.00
2023-03-16T07:07:31.271Z,100.00
2023-03-16T07:09:59.153Z,100.00
2023-03-16T07:12:27.108Z,100.00
2023-03-16T07:14:54.995Z,100.00
2023-03-16T07:17:22.887Z,100.00
2023-03-16T07:19:50.847Z,100.00
2023-03-16T07:22:20.066Z,99.43
2023-03-16T07:24:51.912Z,100.00
2023-03-16T07:27:19.797Z,100.00
2023-03-16T07:29:47.656Z,100.00
2023-03-16T07:32:15.526Z,100.00
2023-03-16T07:34:44.558Z,100.00
2023-03-16T07:37:18.357Z,100.00
2023-03-16T07:39:52.569Z,100.00
2023-03-16T07:42:23.111Z,99.40
2023-03-16T07:44:52.133Z,100.00
2023-03-16T07:47:23.833Z,100.00
2023-03-16T07:49:56.152Z,98.34
2023-03-16T07:52:24.228Z,100.00
2023-03-16T07:54:53.552Z,96.14
2023-03-16T07:57:21.734Z,100.00
2023-03-16T07:59:49.678Z,97.75
2023-03-16T08:02:21.674Z,100.00
2023-03-16T08:04:49.663Z,100.00
2023-03-16T08:07:17.572Z,97.50
2023-03-16T08:09:46.144Z,93.79
2023-03-16T08:12:15.782Z,97.10
2023-03-16T08:14:45.507Z,96.12
2023-03-16T08:17:13.869Z,94.62
2023-03-16T08:19:42.783Z,95.85
2023-03-16T08:22:10.760Z,96.25
2023-03-16T08:24:39.370Z,96.38
2023-03-16T08:27:09.961Z,93.05
2023-03-16T08:29:40.888Z,93.19
2023-03-16T08:32:08.884Z,91.18
2023-03-16T08:34:36.974Z,92.00
2023-03-16T08:37:05.020Z,89.00
2023-03-16T08:39:33.609Z,90.85
2023-03-16T08:42:01.493Z,91.19
2023-03-16T08:44:29.481Z,90.04
2023-03-16T08:46:59.421Z,90.17
2023-03-16T08:49:27.362Z,86.80
2023-03-16T08:51:55.398Z,88.26
2023-03-16T08:54:23.803Z,88.75
2023-03-16T08:56:51.852Z,88.99
2023-03-16T08:59:29.429Z,87.07
2023-03-16T09:02:00.637Z,86.93
2023-03-16T09:04:30.128Z,85.62
2023-03-16T09:07:08.318Z,86.66
2023-03-16T09:09:37.673Z,84.96
2023-03-16T09:12:06.675Z,85.42
2023-03-16T09:14:35.424Z,81.29
2023-03-16T09:17:05.240Z,82.32
2023-03-16T09:19:50.086Z,83.40
2023-03-16T09:22:19.810Z,83.04
2023-03-16T09:24:48.545Z,84.94
2023-03-16T09:27:16.917Z,84.42
2023-03-16T09:29:45.553Z,82.41
2023-03-16T09:32:15.460Z,81.49
2023-03-16T09:34:43.430Z,82.42
2023-03-16T09:37:11.604Z,79.93
2023-03-16T09:39:39.766Z,78.75
2023-03-16T09:42:15.722Z,83.48
2023-03-16T09:44:55.440Z,83.87
2023-03-16T09:47:28.707Z,81.60
2023-03-16T09:50:00.100Z,77.70
2023-03-16T09:52:36.275Z,74.32
2023-03-16T09:55:12.070Z,72.62
2023-03-16T09:57:43.266Z,73.37
2023-03-16T10:00:18.480Z,75.23
2023-03-16T10:03:00.101Z,75.97
2023-03-16T10:05:28.779Z,76.49
2023-03-16T10:08:07.940Z,75.86
2023-03-16T10:10:59.795Z,75.55
2023-03-16T10:13:35.317Z,75.53
2023-03-16T10:16:09.547Z,74.91
2023-03-16T10:18:45.002Z,72.71
2023-03-16T10:21:15.342Z,72.40
2023-03-16T10:23:43.952Z,71.27
2023-03-16T10:26:16.097Z,73.09
2023-03-16T10:28:45.696Z,69.65
2023-03-16T10:31:14.793Z,69.54
2023-03-16T10:33:44.141Z,69.34
2023-03-16T10:36:17.172Z,72.44
2023-03-16T10:38:49.274Z,72.44
2023-03-16T10:41:28.212Z,68.24
2023-03-16T10:43:58.500Z,71.25
2023-03-16T10:46:28.444Z,68.44
2023-03-16T10:49:01.389Z,68.46
2023-03-16T10:51:32.001Z,67.55
2023-03-16T10:54:10.993Z,67.08
2023-03-16T10:56:40.382Z,68.32
2023-03-16T10:59:17.212Z,69.42
2023-03-16T11:01:50.218Z,69.27
2023-03-16T11:04:20.824Z,62.21
2023-03-16T11:06:53.901Z,59.48
2023-03-16T11:09:26.185Z,60.69
2023-03-16T11:11:54.098Z,65.87
2023-03-16T11:14:26.220Z,62.57
2023-03-16T11:17:02.344Z,62.33
2023-03-16T11:19:35.780Z,63.56
2023-03-16T11:22:08.385Z,59.82
2023-03-16T11:24:46.151Z,63.77
2023-03-16T11:27:23.099Z,68.26
2023-03-16T11:30:00.850Z,65.18
2023-03-16T11:32:32.272Z,63.36
2023-03-16T11:35:04.620Z,62.23
2023-03-16T11:37:46.277Z,62.49
2023-03-16T11:40:29.156Z,63.97
2023-03-16T11:43:07.140Z,60.74
2023-03-16T11:45:42.914Z,67.39
2023-03-16T11:48:43.999Z,63.30
2023-03-16T11:51:25.673Z,59.97
2023-03-16T11:54:04.134Z,62.47
2023-03-16T11:56:35.899Z,62.11
2023-03-16T11:59:40.873Z,64.35
2023-03-16T12:02:32.090Z,62.67
2023-03-16T12:05:22.336Z,62.68
2023-03-16T12:08:01.677Z,62.34
2023-03-16T12:10:33.105Z,61.65
2023-03-16T12:13:21.205Z,62.16
2023-03-16T12:15:53.507Z,61.33
2023-03-16T12:18:27.480Z,57.30
2023-03-16T12:20:59.892Z,63.62
2023-03-16T12:23:34.660Z,61.70
2023-03-16T12:26:03.784Z,64.30
2023-03-16T12:28:33.593Z,59.19
2023-03-16T12:31:12.211Z,56.80
2023-03-16T12:34:02.378Z,55.97
2023-03-16T12:37:10.234Z,57.37
2023-03-16T12:39:59.223Z,62.26
2023-03-16T12:42:43.718Z,63.22
2023-03-16T12:45:17.849Z,54.74
2023-03-16T12:47:53.362Z,56.54
2023-03-16T12:50:21.933Z,57.88
2023-03-16T12:52:52.114Z,59.81
2023-03-16T12:55:28.092Z,54.88
2023-03-16T12:58:03.056Z,60.35
2023-03-16T13:00:35.884Z,53.78
2023-03-16T13:03:05.241Z,59.93
2023-03-16T13:05:35.693Z,62.85
2023-03-16T13:08:10.660Z,59.14
2023-03-16T13:10:41.847Z,55.04
2023-03-16T13:13:13.124Z,51.65
2023-03-16T13:15:41.854Z,57.28
2023-03-16T13:18:25.468Z,58.78
2023-03-16T13:20:59.180Z,56.72
2023-03-16T13:23:30.227Z,61.66
2023-03-16T13:26:18.812Z,56.79
2023-03-16T13:28:54.083Z,63.57
2023-03-16T13:31:28.087Z,52.67
2023-03-16T13:34:00.429Z,54.18
2023-03-16T13:36:29.878Z,61.47
2023-03-16T13:39:05.209Z,66.74
2023-03-16T13:41:34.488Z,68.52
2023-03-16T13:44:02.965Z,60.23
2023-03-16T13:46:31.901Z,64.10
2023-03-16T13:49:00.845Z,55.19
2023-03-16T13:51:32.041Z,53.27
2023-03-16T13:54:00.100Z,64.85
2023-03-16T13:56:29.491Z,65.88
2023-03-16T13:59:01.197Z,58.49
2023-03-16T14:01:32.121Z,53.01
2023-03-16T14:04:08.680Z,53.88
2023-03-16T14:06:37.922Z,53.50
2023-03-16T14:09:08.172Z,56.71
2023-03-16T14:11:36.154Z,53.66
2023-03-16T14:14:16.059Z,54.46
2023-03-16T14:16:45.745Z,52.44
2023-03-16T14:19:20.402Z,52.78
2023-03-16T14:21:48.377Z,51.54
2023-03-16T14:24:25.433Z,53.36
2023-03-16T14:26:53.322Z,59.38
2023-03-16T14:29:26.597Z,51.17
2023-03-16T14:31:55.568Z,55.04
2023-03-16T14:34:30.069Z,57.90
2023-03-16T14:37:09.431Z,54.98
2023-03-16T14:39:37.578Z,49.66
2023-03-16T14:42:08.004Z,50.82
2023-03-16T14:44:40.873Z,56.91
2023-03-16T14:47:09.853Z,51.53
2023-03-16T14:49:41.521Z,52.02
2023-03-16T14:52:22.303Z,55.29
2023-03-16T14:54:52.052Z,53.33
2023-03-16T14:57:20.287Z,52.89
2023-03-16T14:59:49.884Z,52.57
2023-03-16T15:02:20.426Z,52.04
2023-03-16T15:04:49.824Z,52.12
2023-03-16T15:07:26.097Z,53.22
2023-03-16T15:09:56.049Z,55.61
2023-03-16T15:12:26.441Z,53.95
2023-03-16T15:15:13.698Z,51.88
2023-03-16T15:17:45.173Z,52.64
2023-03-16T15:20:15.870Z,53.68
2023-03-16T15:22:46.439Z,60.31
2023-03-16T15:25:31.056Z,54.11
2023-03-16T15:27:59.267Z,55.56
2023-03-16T15:30:30.802Z,50.84
2023-03-16T15:32:58.931Z,51.57
2023-03-16T15:35:28.040Z,57.94
2023-03-16T15:37:56.525Z,59.48
2023-03-16T15:40:27.389Z,60.91
2023-03-16T15:42:55.709Z,63.26
2023-03-16T15:45:25.480Z,63.07
2023-03-16T15:47:55.308Z,67.45
2023-03-16T15:50:25.843Z,65.71
2023-03-16T15:52:58.215Z,67.02
2023-03-16T15:55:33.181Z,69.06
2023-03-16T15:58:03.723Z,69.19
2023-03-16T16:00:35.079Z,66.97
2023-03-16T16:03:07.385Z,64.59
2023-03-16T16:05:36.282Z,65.87
2023-03-16T16:08:08.159Z,63.38
2023-03-16T16:10:39.706Z,67.28
2023-03-16T16:13:07.846Z,68.00
2023-03-16T16:15:37.719Z,64.10
2023-03-16T16:18:26.570Z,65.39
2023-03-16T16:20:56.377Z,63.36
2023-03-16T16:23:25.112Z,62.18
2023-03-16T16:25:54.470Z,66.12
2023-03-16T16:28:25.185Z,69.91
2023-03-16T16:30:53.157Z,64.98
2023-03-16T16:33:27.602Z,66.09
2023-03-16T16:35:57.474Z,66.67
2023-03-16T16:38:26.138Z,69.79
2023-03-16T16:40:55.237Z,70.53
2023-03-16T16:43:33.459Z,74.73
2023-03-16T16:46:03.426Z,73.65
2023-03-16T16:48:36.772Z,73.81
2023-03-16T16:51:07.061Z,75.10
2023-03-16T16:53:35.735Z,76.48
2023-03-16T16:56:04.959Z,77.70
2023-03-16T16:58:33.308Z,78.04
2023-03-16T17:01:02.036Z,81.42
2023-03-16T17:03:30.870Z,81.71
2023-03-16T17:06:00.292Z,82.05
2023-03-16T17:08:29.588Z,82.53
2023-03-16T17:10:58.527Z,81.50
2023-03-16T17:13:31.148Z,81.61
2023-03-16T17:16:00.242Z,79.64
2023-03-16T17:18:28.785Z,77.36
2023-03-16T17:20:58.034Z,77.25
2023-03-16T17:23:31.263Z,75.08
2023-03-16T17:26:01.857Z,74.10
2023-03-16T17:28:32.804Z,73.13
2023-03-16T17:31:00.880Z,73.23
2023-03-16T17:33:29.690Z,73.99
2023-03-16T17:35:57.695Z,74.13
2023-03-16T17:38:26.558Z,75.91
2023-03-16T17:40:56.611Z,77.88
2023-03-16T17:43:26.359Z,82.01
2023-03-16T17:45:54.593Z,82.44
2023-03-16T17:48:26.183Z,84.88
2023-03-16T17:50:55.404Z,86.99
2023-03-16T17:53:23.387Z,89.18
2023-03-16T17:55:51.389Z,89.22
2023-03-16T17:58:27.984Z,86.28
2023-03-16T18:00:56.491Z,89.80
2023-03-16T18:03:29.362Z,90.25
2023-03-16T18:05:58.605Z,89.63
2023-03-16T18:08:28.442Z,87.18
2023-03-16T18:10:58.757Z,87.91
2023-03-16T18:13:30.685Z,87.56
2023-03-16T18:15:59.473Z,88.07
2023-03-16T18:18:29.332Z,88.32
2023-03-16T18:21:00.449Z,89.81
2023-03-16T18:23:30.883Z,91.08
2023-03-16T18:26:02.288Z,89.87
2023-03-16T18:28:33.001Z,89.43
2023-03-16T18:31:03.006Z,90.70
2023-03-16T18:33:33.701Z,90.61
2023-03-16T18:36:04.939Z,89.66
2023-03-16T18:38:34.727Z,90.09
2023-03-16T18:41:11.758Z,89.99
2023-03-16T18:43:41.625Z,90.56
2023-03-16T18:46:25.254Z,90.11
2023-03-16T18:48:55.984Z,90.59
2023-03-16T18:51:25.387Z,90.88
2023-03-16T18:53:54.686Z,90.06
2023-03-16T18:56:24.819Z,90.74
2023-03-16T18:58:55.386Z,90.48
2023-03-16T19:01:25.938Z,89.79
2023-03-16T19:03:55.946Z,89.34
2023-03-16T19:06:29.769Z,88.79
2023-03-16T19:09:00.171Z,89.28
2023-03-16T19:11:28.478Z,89.94
2023-03-16T19:13:57.762Z,91.26
2023-03-16T19:16:25.765Z,90.27
2023-03-16T19:18:53.706Z,90.60
2023-03-16T19:21:23.672Z,89.64
2023-03-16T19:23:58.036Z,89.93
2023-03-16T19:26:26.327Z,89.31
2023-03-16T19:28:54.463Z,89.00
2023-03-16T19:31:28.116Z,90.99
2023-03-16T19:33:57.057Z,90.75
2023-03-16T19:36:27.217Z,90.87
2023-03-16T19:38:55.285Z,89.33
2023-03-16T19:41:26.979Z,87.35
2023-03-16T19:43:57.859Z,88.28
2023-03-16T19:46:28.397Z,87.52
2023-03-16T19:48:57.283Z,87.92
2023-03-16T19:51:29.032Z,88.71
2023-03-16T19:53:56.996Z,88.81
2023-03-16T19:56:26.847Z,88.79
2023-03-16T19:58:55.750Z,89.15
2023-03-16T20:01:32.421Z,87.76
2023-03-16T20:04:01.595Z,87.91
2023-03-16T20:06:29.593Z,87.85
2023-03-16T20:08:57.490Z,88.55
2023-03-16T20:11:29.833Z,88.32
2023-03-16T20:13:59.202Z,87.38
2023-03-16T20:16:31.159Z,88.49
2023-03-16T20:19:00.749Z,89.29
2023-03-16T20:21:28.896Z,90.25
2023-03-16T20:23:57.253Z,91.77
2023-03-16T20:26:29.118Z,91.22
2023-03-16T20:28:57.441Z,91.26
2023-03-16T20:31:29.760Z,91.96
2023-03-16T20:33:57.724Z,91.62
2023-03-16T20:36:26.470Z,88.52
2023-03-16T20:38:54.471Z,89.64
2023-03-16T20:41:26.749Z,85.54
2023-03-16T20:43:55.768Z,83.66
2023-03-16T20:46:26.315Z,83.03
2023-03-16T20:48:55.853Z,84.62
2023-03-16T20:51:24.684Z,85.02
2023-03-16T20:53:53.184Z,83.64
2023-03-16T20:56:25.882Z,85.42
2023-03-16T20:58:56.120Z,87.86
2023-03-16T21:01:25.142Z,88.05
2023-03-16T21:03:56.986Z,84.63
2023-03-16T21:06:27.654Z,82.64
2023-03-16T21:08:57.434Z,84.04
2023-03-16T21:11:28.679Z,87.15
2023-03-16T21:13:57.382Z,89.76
2023-03-16T21:16:25.472Z,91.28
2023-03-16T21:18:55.110Z,91.74
2023-03-16T21:21:24.213Z,91.79
2023-03-16T21:23:52.164Z,91.78
2023-03-16T21:26:22.982Z,91.71
2023-03-16T21:28:57.222Z,92.26
2023-03-16T21:31:26.528Z,93.04
2023-03-16T21:33:56.751Z,92.23
2023-03-16T21:36:26.630Z,93.46
2023-03-16T21:38:58.018Z,93.29
2023-03-16T21:41:25.988Z,92.17
2023-03-16T21:43:54.602Z,93.13
2023-03-16T21:46:25.556Z,92.24
2023-03-16T21:48:56.853Z,93.52
2023-03-16T21:51:30.282Z,92.78
2023-03-16T21:53:58.532Z,92.30
2023-03-16T21:56:28.354Z,92.31
2023-03-16T21:58:56.384Z,91.80
2023-03-16T22:01:27.743Z,93.31
2023-03-16T22:04:01.185Z,91.97
2023-03-16T22:06:29.869Z,91.51
2023-03-16T22:08:58.642Z,93.53
2023-03-16T22:11:28.396Z,93.38
2023-03-16T22:13:57.742Z,93.33
2023-03-16T22:16:28.102Z,93.14
2023-03-16T22:18:58.965Z,92.91
2023-03-16T22:21:32.713Z,93.96
2023-03-16T22:24:05.910Z,93.75
2023-03-16T22:26:35.138Z,93.23
2023-03-16T22:29:03.368Z,95.07
2023-03-16T22:31:35.041Z,94.76
2023-03-16T22:34:05.033Z,92.46
2023-03-16T22:36:34.470Z,94.81
2023-03-16T22:39:05.513Z,97.72
2023-03-16T22:41:33.600Z,96.47
2023-03-16T22:44:02.226Z,95.44
2023-03-16T22:46:31.041Z,94.62
2023-03-16T22:48:59.016Z,95.65
2023-03-16T22:51:33.128Z,96.17
2023-03-16T22:54:05.315Z,96.15
2023-03-16T22:56:34.970Z,96.88
2023-03-16T22:59:05.922Z,98.73
2023-03-16T23:01:36.032Z,98.51
2023-03-16T23:04:39.951Z,98.20
2023-03-16T23:07:12.574Z,97.33
2023-03-16T23:09:41.457Z,98.87
2023-03-16T23:12:15.614Z,98.57
2023-03-16T23:14:43.597Z,98.50
2023-03-16T23:17:17.991Z,100.00
2023-03-16T23:19:46.712Z,100.00
2023-03-16T23:22:17.971Z,100.00
2023-03-16T23:24:46.485Z,100.00
2023-03-16T23:27:18.658Z,100.00
2023-03-16T23:29:47.235Z,100.00
2023-03-16T23:32:16.917Z,100.00
2023-03-16T23:34:45.216Z,100.00
2023-03-16T23:37:13.500Z,100.00
2023-03-16T23:39:44.007Z,99.71
2023-03-16T23:42:12.745Z,100.00
2023-03-16T23:44:41.203Z,100.00
2023-03-16T23:47:12.155Z,100.00
2023-03-16T23:49:42.329Z,100.00
2023-03-16T23:52:12.267Z,100.00
2023-03-16T23:54:41.235Z,100.00
2023-03-16T23:57:11.175Z,100.00
2023-03-16T23:59:39.551Z,100.00
